createdAt,value
2017-11-05T00:00:13.265Z,99482.91
2017-11-05T00:01:19.072Z,99487.94
2017-11-05T00:02:25.546Z,99486.42
2017-11-05T00:03:31.578Z,99485.58
2017-11-05T00:04:37.340Z,99482.77
2017-11-05T00:05:43.092Z,99475.29
2017-11-05T00:06:48.934Z,99472.98
2017-11-05T00:07:54.688Z,99477.73
2017-11-05T00:09:00.441Z,99476.19
2017-11-05T00:10:05.254Z,99470.38
2017-11-05T00:11:10.809Z,99471.97
2017-11-05T00:12:16.596Z,99471.88
2017-11-05T00:13:22.360Z,99463.55
2017-11-05T00:14:28.124Z,99471.93
2017-11-05T00:15:33.881Z,99471.33
2017-11-05T00:16:40.399Z,99467.50
2017-11-05T00:17:46.405Z,99467.71
2017-11-05T00:18:52.169Z,99464.80
2017-11-05T00:19:57.934Z,99471.53
2017-11-05T00:21:03.681Z,99468.91
2017-11-05T00:22:08.513Z,99470.31
2017-11-05T00:23:14.308Z,99467.83
2017-11-05T00:24:20.073Z,99466.66
2017-11-05T00:25:25.874Z,99461.72
2017-11-05T00:26:32.404Z,99465.42
2017-11-05T00:27:38.172Z,99463.36
2017-11-05T00:28:44.733Z,99466.27
2017-11-05T00:29:51.261Z,99461.90
2017-11-05T00:30:57.028Z,99460.61
2017-11-05T00:32:03.548Z,99465.95
2017-11-05T00:33:09.308Z,99465.13
2017-11-05T00:34:15.096Z,99451.81
2017-11-05T00:35:20.851Z,99457.26
2017-11-05T00:36:26.605Z,99451.81
2017-11-05T00:37:32.364Z,99449.51
2017-11-05T00:38:38.331Z,99450.38
2017-11-05T00:39:44.114Z,99451.84
2017-11-05T00:40:49.917Z,99453.84
2017-11-05T00:41:56.445Z,99450.31
2017-11-05T00:43:02.205Z,99455.58
2017-11-05T00:44:08.110Z,99448.40
2017-11-05T00:45:13.889Z,99445.60
2017-11-05T00:46:19.649Z,99450.48
2017-11-05T00:47:26.181Z,99449.61
2017-11-05T00:48:31.941Z,99451.58
2017-11-05T00:49:37.932Z,99449.12
2017-11-05T00:50:43.718Z,99447.19
2017-11-05T00:51:49.477Z,99443.78
2017-11-05T00:52:56.015Z,99443.30
2017-11-05T00:54:01.797Z,99442.08
2017-11-05T00:55:08.329Z,99437.63
2017-11-05T00:56:14.443Z,99438.88
2017-11-05T00:57:20.225Z,99435.50
2017-11-05T00:58:25.982Z,99430.14
2017-11-05T00:59:32.506Z,99428.11
2017-11-05T01:00:38.260Z,99426.53
2017-11-05T01:01:44.045Z,99432.16
2017-11-05T01:02:49.800Z,99424.05
2017-11-05T01:03:55.563Z,99428.08
2017-11-05T01:05:01.326Z,99428.59
2017-11-05T01:06:07.092Z,99425.48
2017-11-05T01:07:13.727Z,99427.22
2017-11-05T01:08:20.321Z,99421.30
2017-11-05T01:09:26.844Z,99419.20
2017-11-05T01:10:32.605Z,99421.42
2017-11-05T01:11:38.163Z,99414.64
2017-11-05T01:12:43.960Z,99421.13
2017-11-05T01:13:49.715Z,99415.02
2017-11-05T01:14:55.466Z,99425.41
2017-11-05T01:16:01.224Z,99418.97
2017-11-05T01:17:07.748Z,99423.28
2017-11-05T01:18:13.529Z,99418.67
2017-11-05T01:19:20.049Z,99416.97
2017-11-05T01:20:25.812Z,99419.66
2017-11-05T01:21:32.336Z,99416.46
2017-11-05T01:22:38.095Z,99417.39
2017-11-05T01:23:43.881Z,99412.69
2017-11-05T01:24:49.647Z,99414.28
2017-11-05T01:25:55.405Z,99410.90
2017-11-05T01:27:01.161Z,99409.73
2017-11-05T01:28:06.918Z,99405.70
2017-11-05T01:29:12.699Z,99408.03
2017-11-05T01:30:18.458Z,99413.72
2017-11-05T01:31:24.223Z,99411.23
2017-11-05T01:32:29.780Z,99409.34
2017-11-05T01:33:35.277Z,99410.06
2017-11-05T01:34:41.079Z,99411.63
2017-11-05T01:35:47.101Z,99413.59
2017-11-05T01:36:52.853Z,99408.87
2017-11-05T01:37:59.424Z,99412.61
2017-11-05T01:39:05.031Z,99411.44
2017-11-05T01:40:10.833Z,99408.81
2017-11-05T01:41:16.611Z,99416.34
2017-11-05T01:42:22.599Z,99414.16
2017-11-05T01:43:29.182Z,99415.09
2017-11-05T01:44:34.940Z,99409.23
2017-11-05T01:45:40.739Z,99404.47
2017-11-05T01:46:47.277Z,99406.80
2017-11-05T01:47:53.033Z,99406.65
2017-11-05T01:48:58.785Z,99415.72
2017-11-05T01:50:04.997Z,99411.64
2017-11-05T01:51:10.776Z,99405.03
2017-11-05T01:52:16.525Z,99414.61
2017-11-05T01:53:23.057Z,99414.19
2017-11-05T01:54:28.816Z,99422.63
2017-11-05T01:55:35.327Z,99417.39
2017-11-05T01:56:41.182Z,99429.00
2017-11-05T01:57:46.933Z,99423.52
2017-11-05T01:58:52.688Z,99430.73
2017-11-05T01:59:58.477Z,99427.62
2017-11-05T02:01:04.232Z,99423.37
2017-11-05T02:02:10.028Z,99426.00
2017-11-05T02:03:15.805Z,99424.70
2017-11-05T02:04:21.560Z,99427.08
2017-11-05T02:05:26.619Z,99429.30
2017-11-05T02:06:31.704Z,99432.08
2017-11-05T02:07:37.127Z,99422.80
2017-11-05T02:08:42.286Z,99430.37
2017-11-05T02:09:47.458Z,99421.73
2017-11-05T02:10:53.994Z,99427.68
2017-11-05T02:11:59.754Z,99426.48
2017-11-05T02:13:06.487Z,99424.09
2017-11-05T02:14:12.260Z,99422.63
2017-11-05T02:15:18.784Z,99422.87
2017-11-05T02:16:24.738Z,99420.53
2017-11-05T02:17:30.493Z,99416.23
2017-11-05T02:18:36.273Z,99417.88
2017-11-05T02:19:41.680Z,99422.59
2017-11-05T02:20:47.855Z,99414.64
2017-11-05T02:21:52.945Z,99417.51
2017-11-05T02:22:58.006Z,99422.17
2017-11-05T02:24:03.444Z,99417.89
2017-11-05T02:25:08.519Z,99421.13
2017-11-05T02:26:13.587Z,99422.83
2017-11-05T02:27:19.361Z,99423.98
2017-11-05T02:28:24.428Z,99425.48
2017-11-05T02:29:30.636Z,99424.20
2017-11-05T02:30:35.692Z,99419.45
2017-11-05T02:31:40.760Z,99416.45
2017-11-05T02:32:46.500Z,99412.90
2017-11-05T02:33:52.257Z,99412.45
2017-11-05T02:34:58.033Z,99412.00
2017-11-05T02:36:02.882Z,99413.13
2017-11-05T02:37:09.399Z,99410.08
2017-11-05T02:38:15.144Z,99412.29
2017-11-05T02:39:20.901Z,99417.55
2017-11-05T02:40:26.684Z,99410.55
2017-11-05T02:41:32.445Z,99410.10
2017-11-05T02:42:38.193Z,99413.72
2017-11-05T02:43:43.940Z,99409.06
2017-11-05T02:44:49.002Z,99417.79
2017-11-05T02:45:54.160Z,99415.48
2017-11-05T02:46:59.271Z,99427.14
2017-11-05T02:48:06.135Z,99420.81
2017-11-05T02:49:12.313Z,99425.69
2017-11-05T02:50:17.368Z,99414.09
2017-11-05T02:51:22.969Z,99419.73
2017-11-05T02:52:28.955Z,99413.61
2017-11-05T02:53:34.130Z,99410.70
2017-11-05T02:54:40.782Z,99411.59
2017-11-05T02:55:46.630Z,99409.52
2017-11-05T02:56:53.259Z,99404.61
2017-11-05T02:57:59.118Z,99408.75
2017-11-05T02:59:04.269Z,99408.29
2017-11-05T03:00:10.265Z,99402.00
2017-11-05T03:01:15.476Z,99400.92
2017-11-05T03:02:20.928Z,99398.45
2017-11-05T03:03:26.683Z,99395.83
2017-11-05T03:04:32.501Z,99396.44
2017-11-05T03:05:38.394Z,99394.98
2017-11-05T03:06:45.021Z,99390.39
2017-11-05T03:07:50.874Z,99393.02
2017-11-05T03:08:56.365Z,99387.99
2017-11-05T03:10:02.194Z,99392.27
2017-11-05T03:11:08.362Z,99388.41
2017-11-05T03:12:13.771Z,99387.52
2017-11-05T03:13:19.615Z,99379.86
2017-11-05T03:14:25.521Z,99382.12
2017-11-05T03:15:30.572Z,99379.30
2017-11-05T03:16:35.984Z,99370.67
2017-11-05T03:17:41.035Z,99378.46
2017-11-05T03:18:47.237Z,99375.56
2017-11-05T03:19:52.646Z,99375.52
2017-11-05T03:20:57.699Z,99373.97
2017-11-05T03:22:02.758Z,99369.70
2017-11-05T03:23:07.824Z,99361.72
2017-11-05T03:24:12.907Z,99359.44
2017-11-05T03:25:17.977Z,99360.70
2017-11-05T03:26:23.032Z,99356.67
2017-11-05T03:27:28.100Z,99358.73
2017-11-05T03:28:33.944Z,99360.55
2017-11-05T03:29:39.020Z,99362.42
2017-11-05T03:30:44.443Z,99363.98
2017-11-05T03:31:49.514Z,99360.05
2017-11-05T03:32:54.572Z,99372.66
2017-11-05T03:33:59.632Z,99371.06
2017-11-05T03:35:04.773Z,99375.38
2017-11-05T03:36:10.205Z,99370.12
2017-11-05T03:37:15.944Z,99372.14
2017-11-05T03:38:21.020Z,99370.13
2017-11-05T03:39:26.846Z,99358.16
2017-11-05T03:40:32.696Z,99365.30
2017-11-05T03:41:38.527Z,99356.58
2017-11-05T03:42:43.592Z,99362.26
2017-11-05T03:43:48.663Z,99361.84
2017-11-05T03:44:53.732Z,99360.91
2017-11-05T03:45:59.154Z,99358.20
2017-11-05T03:47:05.331Z,99356.69
2017-11-05T03:48:10.721Z,99348.34
2017-11-05T03:49:15.777Z,99355.18
2017-11-05T03:50:21.176Z,99353.03
2017-11-05T03:51:26.601Z,99360.11
2017-11-05T03:52:32.001Z,99348.48
2017-11-05T03:53:37.050Z,99352.52
2017-11-05T03:54:41.858Z,99350.30
2017-11-05T03:55:47.249Z,99352.84
2017-11-05T03:56:52.681Z,99349.51
2017-11-05T03:57:57.881Z,99346.83
2017-11-05T03:59:03.282Z,99348.06
2017-11-05T04:00:08.080Z,99351.28
2017-11-05T04:01:12.892Z,99349.80
2017-11-05T04:02:17.968Z,99343.41
2017-11-05T04:03:23.030Z,99342.94
2017-11-05T04:04:28.467Z,99354.44
2017-11-05T04:05:33.526Z,99355.37
2017-11-05T04:06:38.588Z,99363.66
2017-11-05T04:07:43.672Z,99352.27
2017-11-05T04:08:48.731Z,99354.34
2017-11-05T04:09:53.785Z,99350.95
2017-11-05T04:10:59.589Z,99356.12
2017-11-05T04:12:04.653Z,99352.83
2017-11-05T04:13:09.740Z,99357.66
2017-11-05T04:14:15.154Z,99352.69
2017-11-05T04:15:20.231Z,99344.91
2017-11-05T04:16:26.760Z,99340.13
2017-11-05T04:17:32.157Z,99345.32
2017-11-05T04:18:37.942Z,99345.23
2017-11-05T04:19:43.332Z,99346.08
2017-11-05T04:20:48.398Z,99340.27
2017-11-05T04:21:53.459Z,99338.70
2017-11-05T04:22:59.276Z,99334.55
2017-11-05T04:24:04.719Z,99335.61
2017-11-05T04:25:10.087Z,99329.74
2017-11-05T04:26:15.145Z,99325.11
2017-11-05T04:27:20.544Z,99325.67
2017-11-05T04:28:25.956Z,99327.41
2017-11-05T04:29:32.163Z,99328.58
2017-11-05T04:30:37.216Z,99332.65
2017-11-05T04:31:42.273Z,99330.36
2017-11-05T04:32:47.691Z,99333.77
2017-11-05T04:33:53.509Z,99333.21
2017-11-05T04:34:58.594Z,99330.83
2017-11-05T04:36:03.653Z,99333.83
2017-11-05T04:37:08.715Z,99335.38
2017-11-05T04:38:14.720Z,99335.94
2017-11-05T04:39:19.841Z,99330.13
2017-11-05T04:40:25.612Z,99332.98
2017-11-05T04:41:31.013Z,99332.34
2017-11-05T04:42:36.429Z,99333.09
2017-11-05T04:43:41.301Z,99326.19
2017-11-05T04:44:47.112Z,99322.17
2017-11-05T04:45:52.192Z,99321.13
2017-11-05T04:46:57.749Z,99322.36
2017-11-05T04:48:02.797Z,99317.95
2017-11-05T04:49:08.364Z,99318.31
2017-11-05T04:50:14.528Z,99327.09
2017-11-05T04:51:20.729Z,99320.86
2017-11-05T04:52:25.920Z,99326.76
2017-11-05T04:53:31.321Z,99323.66
2017-11-05T04:54:37.085Z,99322.02
2017-11-05T04:55:43.277Z,99317.46
2017-11-05T04:56:48.171Z,99314.28
2017-11-05T04:57:53.727Z,99318.97
2017-11-05T04:58:59.301Z,99324.46
2017-11-05T05:00:04.448Z,99320.25
2017-11-05T05:01:09.850Z,99323.66
2017-11-05T05:02:14.935Z,99323.05
2017-11-05T05:03:19.985Z,99323.43
2017-11-05T05:04:25.052Z,99321.50
2017-11-05T05:05:30.444Z,99315.00
2017-11-05T05:06:35.490Z,99314.58
2017-11-05T05:07:41.266Z,99310.49
2017-11-05T05:08:47.089Z,99308.61
2017-11-05T05:09:52.145Z,99308.47
2017-11-05T05:10:57.543Z,99308.53
2017-11-05T05:12:03.290Z,99308.20
2017-11-05T05:13:08.367Z,99299.84
2017-11-05T05:14:13.433Z,99299.91
2017-11-05T05:15:18.493Z,99303.17
2017-11-05T05:16:23.560Z,99302.70
2017-11-05T05:17:28.961Z,99302.38
2017-11-05T05:18:34.050Z,99300.17
2017-11-05T05:19:39.596Z,99308.42
2017-11-05T05:20:45.416Z,99307.10
2017-11-05T05:21:50.812Z,99303.30
2017-11-05T05:22:56.218Z,99296.66
2017-11-05T05:24:02.406Z,99292.86
2017-11-05T05:25:07.850Z,99288.70
2017-11-05T05:26:13.296Z,99291.03
2017-11-05T05:27:18.357Z,99286.11
2017-11-05T05:28:24.168Z,99284.33
2017-11-05T05:29:29.249Z,99278.25
2017-11-05T05:30:34.305Z,99277.41
2017-11-05T05:31:39.352Z,99277.30
2017-11-05T05:32:45.086Z,99278.80
2017-11-05T05:33:50.149Z,99280.72
2017-11-05T05:34:56.353Z,99285.55
2017-11-05T05:36:01.773Z,99289.02
2017-11-05T05:37:07.532Z,99289.44
2017-11-05T05:38:12.608Z,99296.57
2017-11-05T05:39:18.013Z,99294.50
2017-11-05T05:40:22.837Z,99298.77
2017-11-05T05:41:27.908Z,99293.98
2017-11-05T05:42:33.325Z,99295.87
2017-11-05T05:43:38.728Z,99292.20
2017-11-05T05:44:44.553Z,99295.31
2017-11-05T05:45:49.647Z,99293.00
2017-11-05T05:46:54.881Z,99281.73
2017-11-05T05:47:59.931Z,99284.20
2017-11-05T05:49:05.353Z,99284.41
2017-11-05T05:50:11.100Z,99288.16
2017-11-05T05:51:16.198Z,99287.56
2017-11-05T05:52:21.855Z,99286.67
2017-11-05T05:53:26.936Z,99291.39
2017-11-05T05:54:32.761Z,99288.64
2017-11-05T05:55:37.813Z,99293.41
2017-11-05T05:56:43.245Z,99296.74
2017-11-05T05:57:48.352Z,99291.48
2017-11-05T05:58:54.168Z,99288.45
2017-11-05T05:59:59.228Z,99283.50
2017-11-05T06:01:05.046Z,99281.95
2017-11-05T06:02:10.495Z,99283.87
2017-11-05T06:03:15.549Z,99287.88
2017-11-05T06:04:20.777Z,99283.67
2017-11-05T06:05:25.836Z,99286.48
2017-11-05T06:06:31.249Z,99286.84
2017-11-05T06:07:36.337Z,99282.27
2017-11-05T06:08:41.397Z,99282.40
2017-11-05T06:09:46.488Z,99281.98
2017-11-05T06:10:52.333Z,99278.41
2017-11-05T06:11:58.849Z,99275.02
2017-11-05T06:13:04.317Z,99276.87
2017-11-05T06:14:09.398Z,99283.59
2017-11-05T06:15:14.456Z,99279.86
2017-11-05T06:16:19.860Z,99281.09
2017-11-05T06:17:25.135Z,99287.84
2017-11-05T06:18:31.003Z,99289.01
2017-11-05T06:19:36.416Z,99288.94
2017-11-05T06:20:42.257Z,99290.98
2017-11-05T06:21:48.436Z,99297.65
2017-11-05T06:22:53.493Z,99291.34
2017-11-05T06:23:58.588Z,99296.98
2017-11-05T06:25:03.653Z,99289.63
2017-11-05T06:26:09.396Z,99288.31
2017-11-05T06:27:14.457Z,99289.94
2017-11-05T06:28:20.637Z,99296.20
2017-11-05T06:29:25.729Z,99296.69
2017-11-05T06:30:31.557Z,99292.30
2017-11-05T06:31:37.321Z,99291.81
2017-11-05T06:32:43.140Z,99286.31
2017-11-05T06:33:48.208Z,99290.95
2017-11-05T06:34:53.648Z,99291.84
2017-11-05T06:35:59.056Z,99297.08
2017-11-05T06:37:04.884Z,99298.00
2017-11-05T06:38:09.953Z,99300.94
2017-11-05T06:39:15.022Z,99297.32
2017-11-05T06:40:20.112Z,99296.03
2017-11-05T06:41:25.171Z,99294.17
2017-11-05T06:42:30.243Z,99296.86
2017-11-05T06:43:35.304Z,99293.15
2017-11-05T06:44:40.359Z,99298.11
2017-11-05T06:45:45.465Z,99289.27
2017-11-05T06:46:50.869Z,99293.13
2017-11-05T06:47:55.949Z,99290.75
2017-11-05T06:49:01.352Z,99294.62
2017-11-05T06:50:06.762Z,99294.98
2017-11-05T06:51:12.192Z,99294.38
2017-11-05T06:52:17.254Z,99294.78
2017-11-05T06:53:22.665Z,99296.92
2017-11-05T06:54:27.725Z,99295.17
2017-11-05T06:55:33.152Z,99296.80
2017-11-05T06:56:39.129Z,99297.17
2017-11-05T06:57:45.649Z,99297.83
2017-11-05T06:58:50.709Z,99300.70
2017-11-05T06:59:56.542Z,99301.63
2017-11-05T07:01:01.372Z,99300.41
2017-11-05T07:02:07.229Z,99294.03
2017-11-05T07:03:12.289Z,99290.88
2017-11-05T07:04:17.703Z,99294.03
2017-11-05T07:05:22.784Z,99288.53
2017-11-05T07:06:28.109Z,99287.23
2017-11-05T07:07:33.204Z,99290.77
2017-11-05T07:08:38.972Z,99295.06
2017-11-05T07:09:44.382Z,99299.70
2017-11-05T07:10:49.445Z,99302.81
2017-11-05T07:11:55.188Z,99295.38
2017-11-05T07:13:01.190Z,99289.38
2017-11-05T07:14:06.309Z,99292.45
2017-11-05T07:15:11.120Z,99299.00
2017-11-05T07:16:16.209Z,99306.52
2017-11-05T07:17:22.037Z,99306.27
2017-11-05T07:18:27.844Z,99301.45
2017-11-05T07:19:32.908Z,99299.84
2017-11-05T07:20:37.969Z,99300.09
2017-11-05T07:21:43.376Z,99306.48
2017-11-05T07:22:49.210Z,99308.73
2017-11-05T07:23:54.304Z,99308.88
2017-11-05T07:24:59.717Z,99298.69
2017-11-05T07:26:05.125Z,99298.61
2017-11-05T07:27:10.969Z,99307.55
2017-11-05T07:28:17.153Z,99305.86
2017-11-05T07:29:22.612Z,99302.38
2017-11-05T07:30:27.672Z,99306.48
2017-11-05T07:31:33.499Z,99318.52
2017-11-05T07:32:38.566Z,99315.47
2017-11-05T07:33:43.975Z,99321.77
2017-11-05T07:34:49.127Z,99311.01
2017-11-05T07:35:54.569Z,99309.29
2017-11-05T07:36:59.982Z,99311.05
2017-11-05T07:38:06.526Z,99315.02
2017-11-05T07:39:11.842Z,99315.97
2017-11-05T07:40:16.929Z,99314.13
2017-11-05T07:41:22.361Z,99317.91
2017-11-05T07:42:27.429Z,99305.30
2017-11-05T07:43:32.492Z,99308.16
2017-11-05T07:44:37.558Z,99305.61
2017-11-05T07:45:42.666Z,99302.30
2017-11-05T07:46:47.734Z,99304.05
2017-11-05T07:47:52.804Z,99302.82
2017-11-05T07:48:58.238Z,99295.34
2017-11-05T07:50:03.330Z,99294.21
2017-11-05T07:51:09.188Z,99285.51
2017-11-05T07:52:15.353Z,99286.91
2017-11-05T07:53:20.809Z,99288.48
2017-11-05T07:54:26.224Z,99293.53
2017-11-05T07:55:31.083Z,99290.75
2017-11-05T07:56:35.973Z,99285.48
2017-11-05T07:57:41.038Z,99281.12
2017-11-05T07:58:46.452Z,99286.96
2017-11-05T07:59:51.521Z,99290.17
2017-11-05T08:00:57.361Z,99291.25
2017-11-05T08:02:03.232Z,99286.66
2017-11-05T08:03:08.665Z,99295.83
2017-11-05T08:04:13.540Z,99294.89
2017-11-05T08:05:18.621Z,99281.86
2017-11-05T08:06:24.024Z,99290.94
2017-11-05T08:07:29.872Z,99287.14
2017-11-05T08:08:36.416Z,99284.23
2017-11-05T08:09:42.977Z,99291.83
2017-11-05T08:10:48.621Z,99292.72
2017-11-05T08:11:54.457Z,99294.72
2017-11-05T08:13:00.464Z,99289.02
2017-11-05T08:14:05.540Z,99284.31
2017-11-05T08:15:11.816Z,99282.64
2017-11-05T08:16:16.890Z,99288.17
2017-11-05T08:17:21.950Z,99280.44
2017-11-05T08:18:27.403Z,99272.30
2017-11-05T08:19:32.494Z,99271.05
2017-11-05T08:20:37.595Z,99269.40
2017-11-05T08:21:42.654Z,99271.94
2017-11-05T08:22:48.828Z,99272.50
2017-11-05T08:23:54.261Z,99276.78
2017-11-05T08:24:59.340Z,99273.09
2017-11-05T08:26:05.086Z,99273.94
2017-11-05T08:27:10.846Z,99273.95
2017-11-05T08:28:17.393Z,99267.20
2017-11-05T08:29:23.175Z,99272.42
2017-11-05T08:30:28.941Z,99267.56
2017-11-05T08:31:34.694Z,99267.08
2017-11-05T08:32:40.467Z,99260.16
2017-11-05T08:33:46.034Z,99269.72
2017-11-05T08:34:51.847Z,99268.66
2017-11-05T08:35:58.386Z,99266.44
2017-11-05T08:37:04.148Z,99270.62
2017-11-05T08:38:09.892Z,99274.25
2017-11-05T08:39:16.434Z,99266.76
2017-11-05T08:40:21.534Z,99264.92
2017-11-05T08:41:26.608Z,99270.88
2017-11-05T08:42:32.428Z,99270.14
2017-11-05T08:43:37.851Z,99270.69
2017-11-05T08:44:43.628Z,99263.93
2017-11-05T08:45:50.189Z,99264.34
2017-11-05T08:46:56.709Z,99263.45
2017-11-05T08:48:02.124Z,99267.63
2017-11-05T08:49:07.881Z,99263.02
2017-11-05T08:50:13.042Z,99260.45
2017-11-05T08:51:19.584Z,99264.98
2017-11-05T08:52:25.340Z,99262.61
2017-11-05T08:53:31.093Z,99259.81
2017-11-05T08:54:37.627Z,99264.50
2017-11-05T08:55:43.386Z,99251.31
2017-11-05T08:56:49.936Z,99249.26
2017-11-05T08:57:55.689Z,99244.98
2017-11-05T08:59:02.220Z,99235.91
2017-11-05T09:00:08.030Z,99239.28
2017-11-05T09:01:13.117Z,99237.58
2017-11-05T09:02:18.548Z,99235.33
2017-11-05T09:03:23.609Z,99251.58
2017-11-05T09:04:29.041Z,99253.28
2017-11-05T09:05:34.796Z,99261.61
2017-11-05T09:06:40.597Z,99260.55
2017-11-05T09:07:47.135Z,99251.16
2017-11-05T09:08:52.893Z,99256.27
2017-11-05T09:09:59.444Z,99259.00
2017-11-05T09:11:04.554Z,99260.13
2017-11-05T09:12:09.976Z,99250.41
2017-11-05T09:13:15.769Z,99247.94
2017-11-05T09:14:22.337Z,99247.61
2017-11-05T09:15:28.092Z,99244.80
2017-11-05T09:16:33.844Z,99242.66
2017-11-05T09:17:39.614Z,99246.41
2017-11-05T09:18:45.388Z,99247.22
2017-11-05T09:19:51.912Z,99243.66
2017-11-05T09:20:57.684Z,99245.79
2017-11-05T09:22:03.435Z,99237.80
2017-11-05T09:23:09.961Z,99240.88
2017-11-05T09:24:15.785Z,99248.54
2017-11-05T09:25:21.197Z,99247.47
2017-11-05T09:26:26.270Z,99245.22
2017-11-05T09:27:32.021Z,99245.05
2017-11-05T09:28:37.772Z,99237.84
2017-11-05T09:29:44.322Z,99242.47
2017-11-05T09:30:50.120Z,99239.18
2017-11-05T09:31:55.689Z,99234.43
2017-11-05T09:33:01.458Z,99237.34
2017-11-05T09:34:07.803Z,99232.97
2017-11-05T09:35:13.788Z,99228.84
2017-11-05T09:36:19.553Z,99231.47
2017-11-05T09:37:25.313Z,99225.87
2017-11-05T09:38:31.076Z,99234.05
2017-11-05T09:39:36.845Z,99235.03
2017-11-05T09:40:42.622Z,99232.80
2017-11-05T09:41:48.388Z,99235.27
2017-11-05T09:42:54.151Z,99235.53
2017-11-05T09:44:00.677Z,99233.66
2017-11-05T09:45:06.463Z,99236.09
2017-11-05T09:46:13.004Z,99233.83
2017-11-05T09:47:19.529Z,99238.77
2017-11-05T09:48:25.297Z,99236.60
2017-11-05T09:49:31.069Z,99237.61
2017-11-05T09:50:36.829Z,99245.85
2017-11-05T09:51:42.625Z,99241.84
2017-11-05T09:52:48.380Z,99238.13
2017-11-05T09:53:54.136Z,99239.30
2017-11-05T09:54:59.893Z,99226.08
2017-11-05T09:56:05.664Z,99232.94
2017-11-05T09:57:11.441Z,99234.40
2017-11-05T09:58:17.960Z,99233.59
2017-11-05T09:59:23.716Z,99238.88
2017-11-05T10:00:29.472Z,99241.53
2017-11-05T10:01:35.232Z,99240.11
2017-11-05T10:02:42.020Z,99235.66
2017-11-05T10:03:47.786Z,99246.81
2017-11-05T10:04:53.585Z,99244.41
2017-11-05T10:06:00.114Z,99245.76
2017-11-05T10:07:05.901Z,99249.60
2017-11-05T10:08:11.707Z,99246.17
2017-11-05T10:09:17.499Z,99248.99
2017-11-05T10:10:23.267Z,99252.77
2017-11-05T10:11:29.024Z,99250.17
2017-11-05T10:12:34.784Z,99255.61
2017-11-05T10:13:40.698Z,99255.39
2017-11-05T10:14:46.495Z,99249.68
2017-11-05T10:15:53.010Z,99253.06
2017-11-05T10:16:59.071Z,99257.03
2017-11-05T10:18:04.238Z,99255.69
2017-11-05T10:19:10.030Z,99256.28
2017-11-05T10:20:15.114Z,99254.00
2017-11-05T10:21:20.894Z,99257.79
2017-11-05T10:22:26.674Z,99255.27
2017-11-05T10:23:33.199Z,99257.27
2017-11-05T10:24:39.034Z,99256.34
2017-11-05T10:25:44.913Z,99259.55
2017-11-05T10:26:50.700Z,99254.33
2017-11-05T10:27:56.455Z,99253.02
2017-11-05T10:29:02.709Z,99251.38
2017-11-05T10:30:08.520Z,99251.00
2017-11-05T10:31:14.281Z,99245.63
2017-11-05T10:32:20.056Z,99247.96
2017-11-05T10:33:25.976Z,99258.69
2017-11-05T10:34:31.960Z,99258.94
2017-11-05T10:35:38.668Z,99255.48
2017-11-05T10:36:44.562Z,99254.79
2017-11-05T10:37:51.947Z,99251.90
2017-11-05T10:38:58.536Z,99253.64
2017-11-05T10:40:05.119Z,99254.34
2017-11-05T10:41:10.941Z,99257.96
2017-11-05T10:42:16.573Z,99248.34
2017-11-05T10:43:22.376Z,99252.21
2017-11-05T10:44:28.158Z,99253.47
2017-11-05T10:45:33.940Z,99255.17
2017-11-05T10:46:39.886Z,99249.14
2017-11-05T10:47:45.653Z,99244.52
2017-11-05T10:48:51.412Z,99238.35
2017-11-05T10:49:57.177Z,99229.89
2017-11-05T10:51:03.059Z,99230.16
2017-11-05T10:52:08.847Z,99231.48
2017-11-05T10:53:15.455Z,99230.90
2017-11-05T10:54:21.312Z,99227.17
2017-11-05T10:55:26.931Z,99231.05
2017-11-05T10:56:32.738Z,99227.94
2017-11-05T10:57:38.520Z,99224.95
2017-11-05T10:58:44.298Z,99232.92
2017-11-05T10:59:50.055Z,99230.66
2017-11-05T11:00:56.581Z,99228.31
2017-11-05T11:02:02.182Z,99224.02
2017-11-05T11:03:08.163Z,99231.02
2017-11-05T11:04:13.931Z,99231.44
2017-11-05T11:05:19.783Z,99232.41
2017-11-05T11:06:26.389Z,99223.37
2017-11-05T11:07:32.247Z,99225.81
2017-11-05T11:08:38.044Z,99223.45
2017-11-05T11:09:43.856Z,99229.86
2017-11-05T11:10:49.758Z,99224.25
2017-11-05T11:11:55.526Z,99226.06
2017-11-05T11:13:01.282Z,99226.38
2017-11-05T11:14:07.098Z,99222.69
2017-11-05T11:15:12.861Z,99223.03
2017-11-05T11:16:18.628Z,99225.11
2017-11-05T11:17:25.152Z,99219.64
2017-11-05T11:18:30.923Z,99227.86
2017-11-05T11:19:36.709Z,99219.63
2017-11-05T11:20:42.485Z,99220.58
2017-11-05T11:21:48.243Z,99212.23
2017-11-05T11:22:53.997Z,99216.72
2017-11-05T11:24:00.533Z,99214.20
2017-11-05T11:25:06.349Z,99216.73
2017-11-05T11:26:12.157Z,99214.47
2017-11-05T11:27:17.925Z,99214.19
2017-11-05T11:28:23.715Z,99218.33
2017-11-05T11:29:29.479Z,99210.72
2017-11-05T11:30:35.285Z,99212.82
2017-11-05T11:31:41.066Z,99216.92
2017-11-05T11:32:46.835Z,99218.25
2017-11-05T11:33:52.610Z,99221.80
2017-11-05T11:34:58.402Z,99214.22
2017-11-05T11:36:04.188Z,99215.61
2017-11-05T11:37:09.937Z,99215.53
2017-11-05T11:38:15.723Z,99212.95
2017-11-05T11:39:21.735Z,99210.42
2017-11-05T11:40:27.574Z,99210.02
2017-11-05T11:41:34.150Z,99210.66
2017-11-05T11:42:39.917Z,99202.64
2017-11-05T11:43:45.741Z,99217.35
2017-11-05T11:44:52.330Z,99215.80
2017-11-05T11:45:58.085Z,99213.20
2017-11-05T11:47:03.939Z,99214.11
2017-11-05T11:48:09.739Z,99212.53
2017-11-05T11:49:16.274Z,99221.45
2017-11-05T11:50:22.045Z,99217.16
2017-11-05T11:51:27.806Z,99220.44
2017-11-05T11:52:33.657Z,99214.33
2017-11-05T11:53:39.413Z,99211.49
2017-11-05T11:54:45.278Z,99211.08
2017-11-05T11:55:51.075Z,99205.95
2017-11-05T11:56:56.843Z,99204.81
2017-11-05T11:58:02.771Z,99204.32
2017-11-05T11:59:08.557Z,99208.06
2017-11-05T12:00:13.653Z,99214.51
2017-11-05T12:01:19.074Z,99206.63
2017-11-05T12:02:24.979Z,99206.01
2017-11-05T12:03:30.867Z,99214.04
2017-11-05T12:04:35.933Z,99209.03
2017-11-05T12:05:41.382Z,99209.05
2017-11-05T12:06:47.928Z,99201.33
2017-11-05T12:07:53.732Z,99196.91
2017-11-05T12:08:59.627Z,99201.02
2017-11-05T12:10:05.557Z,99204.50
2017-11-05T12:11:11.827Z,99201.01
2017-11-05T12:12:17.691Z,99196.13
2017-11-05T12:13:23.603Z,99194.09
2017-11-05T12:14:29.424Z,99198.66
2017-11-05T12:15:35.189Z,99202.17
2017-11-05T12:16:40.765Z,99192.83
2017-11-05T12:17:46.630Z,99197.09
2017-11-05T12:18:52.411Z,99202.41
2017-11-05T12:19:58.286Z,99197.62
2017-11-05T12:21:04.414Z,99197.22
2017-11-05T12:22:11.035Z,99200.59
2017-11-05T12:23:16.930Z,99200.11
2017-11-05T12:24:22.726Z,99201.07
2017-11-05T12:25:28.703Z,99200.19
2017-11-05T12:26:35.317Z,99209.98
2017-11-05T12:27:41.316Z,99204.80
2017-11-05T12:28:46.928Z,99208.05
2017-11-05T12:29:52.745Z,99209.20
2017-11-05T12:30:58.357Z,99205.88
2017-11-05T12:32:04.143Z,99206.12
2017-11-05T12:33:10.858Z,99204.69
2017-11-05T12:34:17.484Z,99202.09
2017-11-05T12:35:24.230Z,99199.98
2017-11-05T12:36:30.153Z,99205.47
2017-11-05T12:37:35.996Z,99206.59
2017-11-05T12:38:41.891Z,99204.00
2017-11-05T12:39:47.680Z,99212.53
2017-11-05T12:40:53.698Z,99207.41
2017-11-05T12:41:59.787Z,99208.86
2017-11-05T12:43:05.652Z,99214.44
2017-11-05T12:44:11.378Z,99211.09
2017-11-05T12:45:16.859Z,99211.02
2017-11-05T12:46:23.497Z,99203.74
2017-11-05T12:47:29.503Z,99209.77
2017-11-05T12:48:36.297Z,99214.86
2017-11-05T12:49:42.178Z,99201.20
2017-11-05T12:50:49.571Z,99212.79